Time;durP1;ratioP1;P1;durP2;ratioP2;P2;SDS_P1;SDS_P2;PMS_P1;PMS_P2;Temp;Humidity;BMP_temperature;BMP_pressure;BME280_temperature;BME280_humidity;BME280_pressure;Samples;Min_cycle;Max_cycle;Signal;HPM_P1;HPM_P2
2022/07/04 00:00:38;;;;;;;4.23;1.13;;;;;;;18.41;61.49;100303.69;4985924;28;20210;-71
2022/07/04 00:03:05;;;;;;;2.70;1.20;;;;;;;18.51;61.43;100303.75;4993526;28;20234;-70
2022/07/04 00:05:30;;;;;;;1.93;1.20;;;;;;;18.52;62.15;100303.59;4995413;28;20198;-70
2022/07/04 00:07:56;;;;;;;1.50;1.07;;;;;;;18.50;61.81;100307.31;4993278;28;20635;-70
2022/07/04 00:10:21;;;;;;;1.07;0.87;;;;;;;18.45;61.93;100315.50;4986473;28;20212;-71
2022/07/04 00:12:47;;;;;;;1.13;1.00;;;;;;;18.38;62.29;100301.34;5007034;28;20199;-71
2022/07/04 00:15:13;;;;;;;1.63;1.10;;;;;;;18.38;63.36;100306.53;4993365;28;20187;-71
2022/07/04 00:17:38;;;;;;;1.73;1.00;;;;;;;18.32;64.30;100310.50;4994160;28;20286;-70
2022/07/04 00:20:05;;;;;;;1.43;1.10;;;;;;;18.17;65.55;100306.56;4984250;28;20701;-70
2022/07/04 00:22:31;;;;;;;3.07;1.20;;;;;;;18.19;65.12;100308.09;5008335;28;20210;-71
2022/07/04 00:24:56;;;;;;;3.63;1.17;;;;;;;18.05;66.49;100303.22;4993989;28;20227;-70
2022/07/04 00:27:22;;;;;;;2.97;1.33;;;;;;;17.89;66.93;100306.22;4994249;28;20698;-71
2022/07/04 00:29:47;;;;;;;2.33;1.30;;;;;;;17.88;66.66;100307.19;4992257;28;20323;-70
2022/07/04 00:32:13;;;;;;;4.77;1.40;;;;;;;17.82;67.31;100300.69;4984657;28;20254;-70
2022/07/04 00:34:38;;;;;;;4.70;1.23;;;;;;;17.72;68.54;100298.03;4987317;28;20203;-70
2022/07/04 00:37:04;;;;;;;2.60;1.33;;;;;;;17.66;68.93;100300.31;5008473;28;20326;-71
2022/07/04 00:39:30;;;;;;;2.93;1.20;;;;;;;17.54;69.40;100307.34;4993216;28;20670;-71
2022/07/04 00:41:55;;;;;;;2.20;1.20;;;;;;;17.61;69.38;100297.25;4997575;28;20227;-70
2022/07/04 00:44:21;;;;;;;1.40;1.13;;;;;;;17.65;69.85;100296.88;5002646;28;20187;-71
2022/07/04 00:46:47;;;;;;;1.57;1.10;;;;;;;17.73;69.02;100302.28;4993884;28;20693;-71
2022/07/04 00:49:15;;;;;;;4.77;1.63;;;;;;;17.73;69.89;100304.06;4992081;28;20589;-71
2022/07/04 00:51:41;;;;;;;2.07;1.17;;;;;;;17.70;70.25;100312.94;4985192;28;20234;-70
2022/07/04 00:54:10;;;;;;;3.33;1.40;;;;;;;17.61;71.26;100311.06;4994804;28;20195;-70
2022/07/04 00:56:36;;;;;;;4.53;1.30;;;;;;;17.52;71.96;100307.44;4992029;28;20591;-70
2022/07/04 00:59:02;;;;;;;8.73;1.40;;;;;;;17.40;72.47;100308.44;4991937;28;20183;-70
2022/07/04 01:01:28;;;;;;;2.60;1.47;;;;;;;17.55;72.15;100306.38;4981756;28;20267;-70
2022/07/04 01:03:53;;;;;;;3.23;1.37;;;;;;;17.51;72.11;100315.38;4994741;28;20187;-70
2022/07/04 01:06:19;;;;;;;2.67;1.33;;;;;;;17.51;72.54;100316.19;4995770;28;20198;-70
2022/07/04 01:08:45;;;;;;;2.27;1.50;;;;;;;17.55;71.90;100321.97;4991821;28;20238;-70
2022/07/04 01:11:11;;;;;;;2.00;1.70;;;;;;;17.46;72.42;100320.94;4984883;28;20234;-69
2022/07/04 01:13:37;;;;;;;2.60;1.40;;;;;;;17.50;73.02;100337.13;4990151;28;20187;-70
2022/07/04 01:16:03;;;;;;;3.77;1.47;;;;;;;17.53;73.35;100327.31;4991922;28;20657;-69
2022/07/04 01:18:28;;;;;;;6.03;1.50;;;;;;;17.49;73.47;100332.88;4995286;28;20549;-70
2022/07/04 01:20:54;;;;;;;5.00;1.13;;;;;;;17.46;74.45;100325.31;4984698;28;20228;-70
2022/07/04 01:23:19;;;;;;;4.40;1.50;;;;;;;17.39;73.92;100330.16;4991778;28;20183;-70
2022/07/04 01:25:45;;;;;;;5.47;1.50;;;;;;;17.33;74.70;100338.47;4992922;28;20722;-70
2022/07/04 01:28:10;;;;;;;3.20;1.73;;;;;;;17.32;73.85;100342.03;4991434;28;20168;-70
2022/07/04 01:30:37;;;;;;;3.37;1.60;;;;;;;17.37;74.61;100340.69;4986971;28;20245;-71
2022/07/04 01:33:03;;;;;;;3.90;1.67;;;;;;;17.25;74.22;100345.13;4985431;28;20236;-71
2022/07/04 01:35:28;;;;;;;4.47;1.33;;;;;;;17.35;74.42;100340.00;4981833;28;20200;-71
2022/07/04 01:37:54;;;;;;;2.70;1.67;;;;;;;17.30;74.69;100342.13;4991515;28;20183;-71
2022/07/04 01:40:19;;;;;;;1.67;1.53;;;;;;;17.32;75.20;100339.44;4982779;28;20194;-71
2022/07/04 01:42:44;;;;;;;4.17;1.57;;;;;;;17.30;74.74;100341.31;4991677;28;20198;-70
2022/07/04 01:45:10;;;;;;;4.17;1.63;;;;;;;17.25;75.20;100341.66;5004346;28;20226;-69
2022/07/04 01:47:36;;;;;;;2.90;1.60;;;;;;;17.18;75.87;100343.09;4991321;28;20245;-70
2022/07/04 01:50:04;;;;;;;5.80;1.60;;;;;;;17.13;76.86;100345.22;4987119;28;20186;-68
2022/07/04 01:52:29;;;;;;;2.97;1.60;;;;;;;17.12;76.89;100346.16;4990693;28;20605;-70
2022/07/04 01:54:55;;;;;;;2.70;1.50;;;;;;;16.98;78.48;100352.44;4997728;28;20180;-69
2022/07/04 01:57:20;;;;;;;3.73;1.70;;;;;;;16.98;79.15;100353.31;5007506;28;20187;-69
2022/07/04 02:02:29;;;;;;;3.53;1.73;;;;;;;16.82;80.85;100352.78;4977864;28;20215;-70
2022/07/04 02:04:55;;;;;;;4.90;1.60;;;;;;;16.75;81.32;100358.44;4990252;28;20199;-71
2022/07/04 02:07:20;;;;;;;1.90;1.70;;;;;;;16.58;82.52;100369.28;4997656;28;20191;-70
2022/07/04 02:09:46;;;;;;;3.37;1.80;;;;;;;16.56;82.66;100366.81;4989617;28;20263;-70
2022/07/04 02:14:55;;;;;;;2.43;1.90;;;;;;;16.34;84.79;100367.59;4992401;28;20250;-69
2022/07/04 02:17:21;;;;;;;8.03;2.07;;;;;;;16.30;85.36;100376.56;4992654;28;20203;-69
2022/07/04 02:19:47;;;;;;;3.17;1.77;;;;;;;16.21;86.22;100372.88;4989853;28;20257;-70
2022/07/04 02:22:13;;;;;;;3.20;2.10;;;;;;;16.20;86.50;100368.63;4997428;28;20285;-69
2022/07/04 02:24:38;;;;;;;4.20;1.93;;;;;;;16.16;86.92;100376.75;4991864;28;20227;-69
2022/07/04 02:27:04;;;;;;;3.47;1.80;;;;;;;16.12;87.44;100379.59;4986929;28;20212;-60
2022/07/04 02:29:29;;;;;;;4.43;2.00;;;;;;;16.12;87.56;100381.34;4980434;28;20316;-59
2022/07/04 02:31:54;;;;;;;5.17;1.90;;;;;;;16.12;87.82;100381.34;4990961;28;20227;-59
2022/07/04 02:34:20;;;;;;;2.27;1.70;;;;;;;16.18;87.75;100380.88;4973438;28;20195;-59
2022/07/04 02:36:45;;;;;;;2.30;1.73;;;;;;;16.18;87.96;100382.66;4972189;28;20687;-58
2022/07/04 02:39:10;;;;;;;2.33;1.97;;;;;;;16.17;87.90;100387.00;4972307;28;20283;-59
2022/07/04 02:41:36;;;;;;;2.70;1.83;;;;;;;16.11;88.29;100385.72;4977869;28;20241;-59
2022/07/04 02:44:01;;;;;;;5.50;2.30;;;;;;;16.05;88.92;100387.91;4994664;28;20182;-60
2022/07/04 02:46:27;;;;;;;3.07;1.70;;;;;;;15.92;89.88;100380.19;4992896;28;20218;-59
2022/07/04 02:48:52;;;;;;;4.50;2.20;;;;;;;15.86;91.10;100380.66;4991391;28;20554;-58
2022/07/04 02:51:18;;;;;;;4.47;2.13;;;;;;;15.85;91.50;100379.00;4991348;28;20288;-59
2022/07/04 02:53:43;;;;;;;2.47;2.00;;;;;;;15.78;91.83;100381.19;5006649;28;20245;-59
2022/07/04 02:56:09;;;;;;;4.33;1.93;;;;;;;15.74;92.47;100384.91;4991835;28;20553;-58
2022/07/04 02:58:34;;;;;;;2.67;2.00;;;;;;;15.60;93.19;100373.78;4991608;28;20238;-59
2022/07/04 03:01:00;;;;;;;2.67;1.77;;;;;;;15.65;93.77;100382.06;4965380;28;20219;-59
2022/07/04 03:03:26;;;;;;;2.47;1.90;;;;;;;15.55;94.07;100375.84;4990996;28;20198;-59
2022/07/04 03:05:52;;;;;;;3.07;1.83;;;;;;;15.50;95.16;100372.75;4997533;28;20195;-58
2022/07/04 03:08:17;;;;;;;5.03;2.33;;;;;;;15.49;95.21;100381.47;4995930;28;20230;-59
2022/07/04 03:10:43;;;;;;;3.17;1.77;;;;;;;15.30;96.82;100382.75;4990297;28;20717;-58
2022/07/04 03:13:08;;;;;;;3.97;2.00;;;;;;;15.32;97.94;100378.31;5005607;28;20183;-58
2022/07/04 03:15:33;;;;;;;4.10;2.07;;;;;;;15.30;97.51;100379.34;4986522;28;20230;-59
2022/07/04 03:17:59;;;;;;;2.57;1.90;;;;;;;15.43;97.07;100376.72;5006678;28;20183;-59
2022/07/04 03:20:24;;;;;;;6.77;2.47;;;;;;;15.47;96.50;100379.00;4986176;28;20284;-58
2022/07/04 03:22:51;;;;;;;4.80;2.10;;;;;;;15.35;97.49;100379.84;5007790;28;20246;-60
2022/07/04 03:25:16;;;;;;;4.10;1.70;;;;;;;15.42;96.86;100380.28;4995060;28;20242;-60
2022/07/04 03:27:41;;;;;;;3.13;2.03;;;;;;;15.32;98.03;100387.88;4989135;28;20176;-58
2022/07/04 03:30:07;;;;;;;3.40;2.00;;;;;;;15.37;97.62;100387.53;4957798;28;20184;-59
2022/07/04 03:32:32;;;;;;;3.57;1.93;;;;;;;15.48;96.64;100393.63;5004901;28;20341;-59
2022/07/04 03:34:57;;;;;;;4.00;2.60;;;;;;;15.26;97.66;100396.88;4994965;28;20203;-59
2022/07/04 03:37:23;;;;;;;3.43;2.00;;;;;;;15.19;98.94;100400.81;4994897;28;20206;-59
2022/07/04 03:39:48;;;;;;;8.00;2.73;;;;;;;15.35;97.90;100400.59;4994647;28;20183;-59
2022/07/04 03:42:13;;;;;;;3.37;1.73;;;;;;;15.40;96.75;100401.09;5000094;28;20252;-58
2022/07/04 03:44:38;;;;;;;2.97;2.00;;;;;;;15.54;96.27;100402.75;5000853;28;20258;-59
2022/07/04 03:47:04;;;;;;;3.83;2.40;;;;;;;15.52;95.93;100404.59;4994960;28;20211;-59
2022/07/04 03:49:29;;;;;;;3.37;2.10;;;;;;;15.54;96.06;100415.69;4994010;28;20259;-59
2022/07/04 03:51:54;;;;;;;4.90;1.80;;;;;;;15.57;96.06;100410.28;4986391;28;20321;-59
2022/07/04 03:54:20;;;;;;;5.53;2.03;;;;;;;15.63;95.47;100414.22;5003027;28;20187;-59
2022/07/04 03:56:45;;;;;;;3.30;1.83;;;;;;;15.82;93.73;100413.75;4994916;28;20635;-59
2022/07/04 03:59:10;;;;;;;5.63;2.10;;;;;;;15.93;92.76;100410.41;4994399;28;20190;-59
2022/07/04 04:01:36;;;;;;;2.70;1.93;;;;;;;15.84;93.24;100406.72;4986037;28;20238;-59
2022/07/04 04:06:45;;;;;;;6.90;2.13;;;;;;;16.01;92.88;100426.22;5006417;28;20316;-59
2022/07/04 04:09:16;;;;;;;4.07;2.10;;;;;;;16.12;91.72;100423.69;4994235;28;20291;-58
2022/07/04 04:11:41;;;;;;;3.83;2.00;;;;;;;16.04;92.57;100425.16;4996423;28;20814;-58
2022/07/04 04:14:06;;;;;;;5.33;1.97;;;;;;;16.07;92.39;100422.38;4997044;28;20188;-59
2022/07/04 04:16:32;;;;;;;5.40;2.00;;;;;;;16.10;91.52;100424.72;4992203;28;20647;-59
2022/07/04 04:18:57;;;;;;;2.33;1.87;;;;;;;16.09;92.25;100429.09;4994030;28;20191;-58
2022/07/04 04:21:22;;;;;;;2.97;2.10;;;;;;;16.08;92.29;100424.03;4994449;28;20252;-58
2022/07/04 04:23:48;;;;;;;2.50;1.93;;;;;;;16.22;91.52;100429.03;4998802;28;20258;-58
2022/07/04 04:26:13;;;;;;;4.13;2.03;;;;;;;16.24;91.41;100427.16;4989540;28;20242;-58
2022/07/04 04:28:38;;;;;;;4.00;2.47;;;;;;;16.38;90.32;100431.31;4987101;28;20238;-59
2022/07/04 04:31:03;;;;;;;5.37;2.03;;;;;;;16.35;91.57;100430.72;4991374;28;20685;-58
2022/07/04 04:33:29;;;;;;;2.10;1.90;;;;;;;16.36;91.32;100434.97;4992811;28;20230;-58
2022/07/04 04:35:54;;;;;;;4.13;1.90;;;;;;;16.29;91.98;100432.00;4994020;28;20591;-58
2022/07/04 04:38:19;;;;;;;3.30;2.00;;;;;;;16.42;92.14;100430.16;5009230;28;20238;-58
2022/07/04 04:40:44;;;;;;;2.37;2.07;;;;;;;16.51;91.81;100433.84;4988810;28;20227;-58
2022/07/04 04:43:10;;;;;;;3.87;2.30;;;;;;;16.61;90.79;100434.00;4992944;28;20176;-59
2022/07/04 04:45:35;;;;;;;2.73;2.20;;;;;;;16.55;90.52;100435.28;4999277;28;20269;-59
2022/07/04 04:48:00;;;;;;;4.17;2.03;;;;;;;16.67;90.39;100435.28;4993588;28;20180;-58
2022/07/04 04:50:26;;;;;;;4.87;1.90;;;;;;;16.79;89.60;100442.16;4986455;28;20230;-58
2022/07/04 04:52:51;;;;;;;5.30;2.10;;;;;;;16.83;89.51;100453.16;4993703;28;20192;-58
2022/07/04 04:55:16;;;;;;;4.90;2.07;;;;;;;16.96;86.79;100445.31;5005064;28;20226;-60
2022/07/04 04:57:42;;;;;;;6.13;2.00;;;;;;;17.07;85.66;100442.72;4993533;28;20636;-59
2022/07/04 05:00:07;;;;;;;3.83;1.73;;;;;;;17.29;83.82;100441.03;4983762;28;20187;-59
2022/07/04 05:02:33;;;;;;;2.60;1.50;;;;;;;17.28;81.59;100458.44;5008025;28;20176;-57
2022/07/04 05:04:58;;;;;;;2.30;1.40;;;;;;;17.55;80.40;100457.22;4993787;28;20577;-58
2022/07/04 05:07:23;;;;;;;2.40;1.80;;;;;;;17.66;79.94;100457.22;4996008;28;20259;-58
2022/07/04 05:09:49;;;;;;;2.37;1.40;;;;;;;17.58;77.84;100459.59;4992990;28;20631;-58
2022/07/04 05:12:15;;;;;;;3.53;1.60;;;;;;;17.64;78.98;100460.88;4998487;28;20276;-59
2022/07/04 05:14:40;;;;;;;5.57;1.60;;;;;;;17.77;77.60;100455.53;4992077;28;20171;-59
2022/07/04 05:17:06;;;;;;;5.37;1.90;;;;;;;17.83;76.49;100447.25;4993332;28;20198;-59
2022/07/04 05:19:31;;;;;;;1.80;1.60;;;;;;;17.98;75.48;100460.84;4992439;28;20195;-59
2022/07/04 05:21:56;;;;;;;2.93;1.60;;;;;;;18.08;73.01;100464.34;4985990;28;20242;-60
2022/07/04 05:24:22;;;;;;;2.63;1.40;;;;;;;18.23;71.98;100463.13;4988684;28;20176;-59
2022/07/04 05:26:47;;;;;;;2.20;1.47;;;;;;;18.34;70.47;100458.81;4986362;28;20242;-60
2022/07/04 05:29:12;;;;;;;4.93;1.63;;;;;;;18.60;70.09;100458.44;4989631;28;20175;-60
2022/07/04 05:31:38;;;;;;;5.70;1.53;;;;;;;18.66;68.88;100465.75;4976060;28;20277;-60
2022/07/04 05:34:03;;;;;;;1.40;1.20;;;;;;;18.74;66.93;100470.31;4981637;28;20212;-60
2022/07/04 05:36:29;;;;;;;4.93;1.67;;;;;;;18.90;65.87;100462.03;4983287;28;20215;-60
2022/07/04 05:38:54;;;;;;;2.80;1.33;;;;;;;18.98;64.68;100470.09;4990521;28;20179;-60
2022/07/04 05:41:20;;;;;;;1.60;1.40;;;;;;;19.19;63.38;100476.06;4986080;28;20666;-61
2022/07/04 05:43:45;;;;;;;4.40;1.50;;;;;;;19.39;62.39;100477.94;4986353;28;20963;-61
2022/07/04 05:46:10;;;;;;;2.20;1.80;;;;;;;19.71;60.80;100474.31;4991535;28;20199;-61
2022/07/04 05:48:36;;;;;;;3.70;1.50;;;;;;;19.62;59.84;100479.41;4990414;28;20270;-61
2022/07/04 05:51:05;;;;;;;2.40;1.47;;;;;;;19.80;60.39;100479.56;4989438;28;20645;-61
2022/07/04 05:53:31;;;;;;;2.80;1.50;;;;;;;19.95;58.86;100489.66;4991014;28;20595;-61
2022/07/04 05:55:56;;;;;;;2.20;1.43;;;;;;;20.34;56.58;100492.28;4991722;28;20191;-61
2022/07/04 05:58:21;;;;;;;4.60;1.30;;;;;;;20.19;54.60;100488.44;4991063;28;20191;-62
2022/07/04 06:00:47;;;;;;;2.73;1.57;;;;;;;20.55;54.64;100486.91;4985757;28;20302;-60
2022/07/04 06:03:12;;;;;;;3.37;1.20;;;;;;;20.75;54.00;100490.38;4974556;28;20228;-61
2022/07/04 06:05:37;;;;;;;4.13;1.20;;;;;;;20.89;52.15;100490.88;4990383;28;20291;-61
2022/07/04 06:08:03;;;;;;;4.67;1.60;;;;;;;21.25;49.99;100489.25;4986332;28;20199;-61
2022/07/04 06:10:29;;;;;;;3.73;1.17;;;;;;;21.75;49.29;100489.84;4982772;28;20245;-61
2022/07/04 06:12:54;;;;;;;3.80;1.97;;;;;;;22.25;47.62;100492.00;4988526;28;20527;-61
2022/07/04 06:15:19;;;;;;;2.70;1.50;;;;;;;22.91;44.26;100488.22;4991343;28;20175;-60
2022/07/04 06:17:44;;;;;;;3.23;1.50;;;;;;;23.12;43.46;100495.72;4989970;28;20323;-61
2022/07/04 06:20:10;;;;;;;4.40;1.50;;;;;;;23.87;42.05;100492.41;4976534;28;20567;-62
2022/07/04 06:22:46;;;;;;;2.00;1.67;;;;;;;24.53;40.35;100496.91;4998348;28;20271;-60
2022/07/04 06:25:13;;;;;;;2.80;1.40;;;;;;;26.05;37.26;100495.06;4982250;28;20293;-62
2022/07/04 06:27:39;;;;;;;2.10;1.17;;;;;;;25.46;37.54;100500.84;4990717;28;20275;-61
2022/07/04 06:30:05;;;;;;;5.07;1.67;;;;;;;25.59;37.31;100493.19;4973238;28;20822;-60
2022/07/04 06:32:41;;;;;;;4.35;1.00;;;;;;;26.44;35.55;100492.47;4986605;28;20207;-60
2022/07/04 06:37:51;;;;;;;3.30;1.30;;;;;;;26.74;34.78;100499.47;4984943;28;20194;-59
2022/07/04 06:40:16;;;;;;;2.65;1.20;;;;;;;27.48;33.36;100495.19;4979574;28;20546;-60
2022/07/04 06:42:42;;;;;;;5.90;1.10;;;;;;;27.78;32.41;100505.66;4993366;28;20187;-61
2022/07/04 06:45:08;;;;;;;4.15;1.52;;;;;;;29.32;30.40;100505.25;4990914;28;20266;-63
2022/07/04 06:47:33;;;;;;;2.35;1.13;;;;;;;28.63;30.30;100499.72;4984089;28;20176;-61
2022/07/04 06:49:58;;;;;;;2.97;1.17;;;;;;;28.53;30.69;100489.47;4989906;28;20202;-62
2022/07/04 06:52:23;;;;;;;2.30;0.90;;;;;;;29.20;30.50;100497.00;4987450;28;20311;-61
2022/07/04 06:54:49;;;;;;;2.47;1.13;;;;;;;29.88;28.64;100493.56;4983434;28;20241;-61
2022/07/04 06:57:14;;;;;;;4.88;1.27;;;;;;;28.92;29.58;100495.25;4989527;28;20210;-62
2022/07/04 06:59:39;;;;;;;2.55;1.40;;;;;;;29.40;29.38;100487.34;4989349;28;20188;-61
2022/07/04 07:02:04;;;;;;;5.32;1.50;;;;;;;27.69;31.12;100481.19;4983977;28;20702;-61
2022/07/04 07:04:30;;;;;;;3.05;1.30;;;;;;;28.43;30.92;100476.59;4977864;28;20188;-60
2022/07/04 07:06:55;;;;;;;4.28;1.33;;;;;;;28.08;30.84;100473.03;4976866;28;20211;-60
2022/07/04 07:09:20;;;;;;;2.90;1.10;;;;;;;28.94;29.46;100474.69;4985379;28;20476;-60
2022/07/04 07:11:45;;;;;;;1.50;1.13;;;;;;;28.96;29.39;100470.84;4994378;28;20226;-60
2022/07/04 07:14:11;;;;;;;1.73;1.00;;;;;;;30.24;27.66;100461.38;4993536;28;20199;-62
2022/07/04 07:16:36;;;;;;;4.22;0.98;;;;;;;30.59;26.75;100469.13;4983292;28;20713;-61
2022/07/04 07:19:01;;;;;;;2.40;1.15;;;;;;;30.47;26.39;100472.59;4992652;28;20200;-61
2022/07/04 07:21:27;;;;;;;6.68;1.50;;;;;;;30.20;26.54;100465.44;4974006;28;20285;-60
2022/07/04 07:23:52;;;;;;;1.98;1.00;;;;;;;31.13;25.96;100466.31;4989097;28;20627;-61
2022/07/04 07:26:17;;;;;;;2.35;1.20;;;;;;;31.40;25.77;100466.19;4986689;28;20705;-61
2022/07/04 07:28:42;;;;;;;3.15;1.30;;;;;;;30.86;26.02;100471.72;4971716;28;20187;-60
2022/07/04 07:31:08;;;;;;;1.60;0.80;;;;;;;30.38;27.25;100472.78;4948520;28;20793;-61
2022/07/04 07:33:33;;;;;;;1.95;1.02;;;;;;;31.73;24.70;100475.84;4984046;28;20185;-60
2022/07/04 07:35:59;;;;;;;1.95;0.98;;;;;;;32.07;24.68;100479.06;4979568;28;20291;-62
2022/07/04 07:38:24;;;;;;;2.47;0.80;;;;;;;31.72;25.38;100474.22;4971714;28;20203;-60
2022/07/04 07:40:50;;;;;;;2.65;1.00;;;;;;;33.58;23.83;100479.75;4977476;28;20317;-61
2022/07/04 07:43:16;;;;;;;4.35;1.17;;;;;;;33.58;23.28;100474.41;4986363;28;20525;-61
2022/07/04 07:45:41;;;;;;;4.25;1.15;;;;;;;33.19;23.05;100477.34;4987258;28;20207;-61
2022/07/04 07:48:06;;;;;;;2.40;0.77;;;;;;;31.55;24.64;100474.69;4974247;28;20234;-61
2022/07/04 07:50:32;;;;;;;2.88;1.08;;;;;;;32.40;23.78;100471.84;4965278;28;20231;-61
2022/07/04 07:52:57;;;;;;;2.15;1.10;;;;;;;32.65;22.88;100475.28;5003110;28;20437;-64
2022/07/04 07:55:22;;;;;;;3.53;1.00;;;;;;;31.55;24.71;100472.03;4982240;28;20199;-63
2022/07/04 07:57:48;;;;;;;2.65;1.00;;;;;;;30.29;25.96;100463.44;4995055;28;20619;-61
2022/07/04 08:00:13;;;;;;;2.38;0.70;;;;;;;31.22;25.40;100469.56;4984839;28;20266;-61
2022/07/04 08:05:22;;;;;;;1.35;0.85;;;;;;;31.42;25.03;100460.66;4980929;28;20532;-61
2022/07/04 08:07:48;;;;;;;4.80;0.73;;;;;;;31.52;24.64;100471.66;4987891;28;20643;-62
2022/07/04 08:10:13;;;;;;;5.75;1.08;;;;;;;31.06;24.79;100468.16;4966062;28;20591;-61
2022/07/04 08:12:39;;;;;;;2.28;0.85;;;;;;;32.66;23.54;100471.59;4994833;28;20199;-63
2022/07/04 08:15:05;;;;;;;2.05;0.98;;;;;;;32.70;24.02;100471.97;4989171;28;20202;-62
2022/07/04 08:17:30;;;;;;;2.08;0.90;;;;;;;33.52;22.49;100464.66;4988977;28;20192;-65
2022/07/04 08:19:55;;;;;;;2.88;0.90;;;;;;;31.19;24.42;100472.63;4981374;28;20311;-62
2022/07/04 08:22:21;;;;;;;2.03;0.98;;;;;;;32.07;25.00;100457.00;4979577;28;20333;-61
2022/07/04 08:24:47;;;;;;;2.63;0.88;;;;;;;33.87;22.49;100450.59;4988288;28;20602;-61
2022/07/04 08:27:13;;;;;;;2.30;0.82;;;;;;;33.21;22.33;100447.81;4990421;28;20585;-62
2022/07/04 08:29:38;;;;;;;4.35;1.00;;;;;;;34.04;21.90;100446.22;4990686;28;20242;-62
2022/07/04 08:32:07;;;;;;;2.30;0.75;;;;;;;33.78;21.33;100442.09;4985308;28;20223;-62
2022/07/04 08:34:32;;;;;;;4.10;0.98;;;;;;;32.38;23.44;100444.66;4992620;28;20635;-61
2022/07/04 08:36:57;;;;;;;1.02;0.70;;;;;;;34.25;22.33;100436.81;4988881;28;20274;-61
2022/07/04 08:39:23;;;;;;;3.35;1.17;;;;;;;35.48;20.21;100442.22;4980998;28;20179;-61
2022/07/04 08:41:51;;;;;;;1.02;0.60;;;;;;;33.92;22.31;100445.38;4979173;28;20234;-62
2022/07/04 08:44:19;;;;;;;2.53;1.00;;;;;;;34.67;21.22;100435.03;4989814;28;20188;-61
2022/07/04 08:46:44;;;;;;;1.83;0.85;;;;;;;34.89;21.03;100435.22;4983130;28;20205;-60
2022/07/04 08:49:17;;;;;;;2.53;1.05;;;;;;;35.28;20.62;100442.59;4992180;28;20712;-61
2022/07/04 08:51:57;;;;;;;2.35;0.70;;;;;;;34.83;19.91;100442.31;4991264;28;20667;-61
2022/07/04 08:59:55;;;;;;;3.38;0.80;;;;;;;33.76;21.66;100428.97;4992207;28;20199;-63
2022/07/04 09:02:22;;;;;;;1.15;0.68;;;;;;;34.51;20.80;100423.22;4998187;28;20721;-61
2022/07/04 09:04:49;;;;;;;3.75;0.98;;;;;;;34.07;21.70;100435.06;4975837;28;20995;-62
2022/07/04 09:07:14;;;;;;;3.13;0.90;;;;;;;34.94;20.79;100426.50;4989604;28;20298;-59
2022/07/04 09:09:41;;;;;;;1.25;0.60;;;;;;;35.02;21.01;100428.81;4991034;28;20262;-61
2022/07/04 09:12:08;;;;;;;2.13;0.65;;;;;;;36.05;20.30;100427.03;4984954;28;20226;-61
2022/07/04 09:14:33;;;;;;;3.60;0.70;;;;;;;36.12;19.52;100425.00;4988605;28;20549;-60
2022/07/04 09:16:59;;;;;;;1.17;0.63;;;;;;;37.51;18.87;100429.31;4978292;28;20195;-61
2022/07/04 09:19:25;;;;;;;1.55;0.80;;;;;;;37.72;17.50;100429.47;4979259;28;20195;-61
2022/07/04 09:21:50;;;;;;;0.98;0.57;;;;;;;38.50;17.28;100428.06;4986471;28;20226;-63
2022/07/04 09:24:15;;;;;;;0.85;0.52;;;;;;;36.73;18.48;100416.16;4984818;28;20195;-62
2022/07/04 09:26:44;;;;;;;1.35;0.57;;;;;;;37.06;18.68;100423.22;4982799;28;20226;-61
2022/07/04 09:29:10;;;;;;;2.42;0.88;;;;;;;36.73;17.88;100418.84;4996364;28;20281;-60
2022/07/04 09:31:37;;;;;;;2.80;0.60;;;;;;;37.57;17.82;100419.41;4996757;28;20230;-60
2022/07/04 09:34:04;;;;;;;1.55;0.70;;;;;;;36.14;18.94;100415.66;4994156;28;20556;-62
2022/07/04 09:36:32;;;;;;;2.42;0.88;;;;;;;35.03;19.70;100396.47;4998845;28;20506;-62
2022/07/04 09:39:04;;;;;;;3.30;0.85;;;;;;;35.64;19.36;100403.16;4990378;28;20639;-63
2022/07/04 09:41:34;;;;;;;1.90;0.77;;;;;;;34.41;19.94;100402.44;4999904;28;20222;-62
2022/07/04 09:44:05;;;;;;;1.80;0.63;;;;;;;33.97;21.67;100392.13;4991503;28;20264;-62
2022/07/04 09:46:31;;;;;;;2.05;0.70;;;;;;;36.00;20.00;100395.69;4991373;28;20270;-61
2022/07/04 09:48:56;;;;;;;4.30;0.82;;;;;;;36.90;19.06;100391.97;4982518;28;20203;-63
2022/07/04 09:51:40;;;;;;;1.30;0.70;;;;;;;35.64;18.83;100395.91;4973204;28;20262;-61
2022/07/04 09:54:17;;;;;;;2.33;0.68;;;;;;;35.21;19.18;100386.63;4987216;28;20183;-61
2022/07/04 09:56:48;;;;;;;1.05;0.70;;;;;;;34.55;19.03;100389.66;4983685;28;20583;-61
2022/07/04 09:59:13;;;;;;;1.70;0.88;;;;;;;34.31;19.89;100381.69;4990071;28;20664;-60
2022/07/04 10:01:39;;;;;;;2.60;0.57;;;;;;;34.55;19.54;100381.66;4995207;28;20230;-60
2022/07/04 10:04:06;;;;;;;2.75;0.80;;;;;;;35.29;19.01;100388.91;4994902;28;20234;-62
2022/07/04 10:06:33;;;;;;;1.42;0.70;;;;;;;36.69;17.94;100391.72;4983006;28;20211;-61
2022/07/04 10:09:13;;;;;;;1.70;0.73;;;;;;;38.29;16.93;100409.16;4991265;28;20180;-62
2022/07/04 10:11:41;;;;;;;1.73;0.75;;;;;;;37.89;15.56;100400.59;4978665;28;20235;-61
2022/07/04 10:14:08;;;;;;;2.78;0.60;;;;;;;38.20;16.60;100408.03;4990615;28;20180;-59
2022/07/04 10:16:35;;;;;;;0.98;0.60;;;;;;;37.35;16.47;100406.91;4997125;28;20183;-62
2022/07/04 10:19:00;;;;;;;3.78;0.80;;;;;;;36.95;16.69;100402.75;4987375;28;20241;-61
2022/07/04 10:21:26;;;;;;;2.80;0.60;;;;;;;36.21;17.67;100398.63;4991912;28;20520;-60
2022/07/04 10:23:52;;;;;;;1.85;0.70;;;;;;;36.89;16.46;100409.13;4990764;28;20270;-61
2022/07/04 10:26:20;;;;;;;1.92;0.65;;;;;;;36.31;17.10;100401.44;4992038;28;20475;-59
2022/07/04 10:28:47;;;;;;;1.05;0.50;;;;;;;37.64;17.08;100414.66;4989944;28;20642;-59
2022/07/04 10:31:13;;;;;;;3.35;0.70;;;;;;;38.06;15.96;100408.50;4983622;28;20932;-60
2022/07/04 10:33:39;;;;;;;0.70;0.57;;;;;;;39.37;15.85;100414.88;4989870;28;20556;-61
2022/07/04 10:36:13;;;;;;;2.55;0.80;;;;;;;38.67;14.27;100415.22;4997714;28;20207;-61
2022/07/04 10:38:50;;;;;;;1.75;0.68;;;;;;;39.22;14.58;100426.44;4985208;28;20191;-61
2022/07/04 10:41:19;;;;;;;2.67;0.55;;;;;;;39.79;14.36;100426.41;4967523;28;20717;-61
2022/07/04 10:43:48;;;;;;;1.38;0.45;;;;;;;38.89;15.38;100425.81;4970827;28;20184;-60
2022/07/04 10:46:13;;;;;;;2.05;0.65;;;;;;;36.54;17.87;100418.34;4973736;28;20195;-60
2022/07/04 10:49:06;;;;;;;1.50;0.57;;;;;;;34.42;18.21;100412.91;4972929;28;20250;-61
2022/07/04 10:51:50;;;;;;;2.45;0.50;;;;;;;31.86;21.51;100403.94;4996903;28;20504;-61
2022/07/04 10:54:33;;;;;;;1.05;0.68;;;;;;;31.17;22.79;100402.94;4987947;28;20658;-61
2022/07/04 10:57:19;;;;;;;1.20;0.63;;;;;;;29.88;24.08;100393.63;4991252;28;20281;-60
2022/07/04 10:59:57;;;;;;;1.48;0.63;;;;;;;29.78;24.83;100395.84;4989627;28;20582;-61
2022/07/04 11:02:26;;;;;;;3.97;1.00;;;;;;;28.98;24.91;100396.50;4968330;28;20327;-62
2022/07/04 11:05:05;;;;;;;2.15;0.68;;;;;;;28.93;25.30;100397.09;4973249;28;20195;-61
2022/07/04 11:07:30;;;;;;;4.32;0.85;;;;;;;28.38;25.41;100398.81;4971310;28;20281;-59
2022/07/04 11:10:16;;;;;;;3.88;1.10;;;;;;;27.19;27.79;100383.28;4995460;28;20639;-61
2022/07/04 11:12:53;;;;;;;1.88;0.73;;;;;;;26.82;28.66;100394.84;4948955;28;20266;-60
2022/07/04 11:15:24;;;;;;;3.10;1.08;;;;;;;26.05;28.93;100388.81;4965696;28;20267;-59
2022/07/04 11:17:51;;;;;;;6.72;0.80;;;;;;;25.95;28.90;100381.16;4988535;28;20181;-60
2022/07/04 11:20:17;;;;;;;2.40;0.70;;;;;;;26.12;30.52;100379.19;4973173;28;20202;-60
2022/07/04 11:22:43;;;;;;;1.27;1.00;;;;;;;26.39;30.24;100382.25;4971575;28;20276;-60
2022/07/04 11:25:11;;;;;;;3.10;0.80;;;;;;;25.83;30.08;100375.47;4983132;28;20314;-59
2022/07/04 11:27:37;;;;;;;2.40;1.05;;;;;;;25.73;30.11;100367.81;5006636;28;20640;-59
2022/07/04 11:30:02;;;;;;;1.90;0.80;;;;;;;26.23;30.16;100370.03;4972818;28;20219;-61
2022/07/04 11:32:33;;;;;;;4.93;0.50;;;;;;;26.79;31.63;100369.63;4978877;28;20335;-61
2022/07/04 11:34:59;;;;;;;1.75;0.70;;;;;;;26.90;30.39;100371.81;4995052;28;20221;-60
2022/07/04 11:37:24;;;;;;;1.35;0.50;;;;;;;26.55;29.27;100365.44;4994534;28;20188;-60
2022/07/04 11:45:02;;;;;;;0.63;0.55;;;;;;;26.38;29.17;100368.25;4975588;28;20176;-60